createdAt,value
2023-05-17T00:00:03.867Z,5.06
2023-05-17T00:01:04.496Z,5.06
2023-05-17T00:03:04.278Z,5.06
2023-05-17T00:04:04.448Z,5.06
2023-05-17T00:05:04.971Z,5.06
2023-05-17T00:07:04.333Z,5.06
2023-05-17T00:09:03.545Z,5.06
2023-05-17T00:10:03.787Z,5.00
2023-05-17T00:12:03.686Z,5.00
2023-05-17T00:13:03.737Z,5.00
2023-05-17T00:14:04.348Z,5.00
2023-05-17T00:15:03.935Z,4.94
2023-05-17T00:16:04.254Z,4.94
2023-05-17T00:17:03.968Z,4.94
2023-05-17T00:18:03.568Z,4.94
2023-05-17T00:19:04.263Z,4.94
2023-05-17T00:20:04.341Z,4.88
2023-05-17T00:21:04.326Z,4.88
2023-05-17T00:22:04.161Z,4.88
2023-05-17T00:23:03.872Z,4.88
2023-05-17T00:24:03.574Z,4.88
2023-05-17T00:25:04.202Z,4.88
2023-05-17T00:26:04.010Z,4.88
2023-05-17T00:27:03.644Z,4.88
2023-05-17T00:28:04.161Z,4.88
2023-05-17T00:29:04.255Z,4.88
2023-05-17T00:31:04.492Z,4.81
2023-05-17T00:32:04.171Z,4.81
2023-05-17T00:33:04.205Z,4.81
2023-05-17T00:35:03.583Z,4.81
2023-05-17T00:37:03.867Z,4.75
2023-05-17T00:38:04.494Z,4.75
2023-05-17T00:39:04.037Z,4.75
2023-05-17T00:41:04.114Z,4.75
2023-05-17T00:42:03.766Z,4.69
2023-05-17T00:43:04.490Z,4.69
2023-05-17T00:44:04.174Z,4.69
2023-05-17T00:45:03.726Z,4.69
2023-05-17T00:46:04.340Z,4.69
2023-05-17T00:48:04.498Z,4.69
2023-05-17T00:49:04.245Z,4.62
2023-05-17T00:50:04.000Z,4.62
2023-05-17T00:51:04.420Z,4.62
2023-05-17T00:52:04.093Z,4.62
2023-05-17T00:53:03.859Z,4.56
2023-05-17T00:54:04.323Z,4.56
2023-05-17T00:56:03.616Z,4.50
2023-05-17T00:57:04.251Z,4.50
2023-05-17T00:59:04.325Z,4.50
2023-05-17T01:00:03.778Z,4.50
2023-05-17T01:01:04.256Z,4.50
2023-05-17T01:02:03.451Z,4.50
2023-05-17T01:03:04.173Z,4.50
2023-05-17T01:04:03.641Z,4.50
2023-05-17T01:05:03.660Z,4.44
2023-05-17T01:06:04.178Z,4.44
2023-05-17T01:07:03.929Z,4.44
2023-05-17T01:08:04.251Z,4.44
2023-05-17T01:09:03.769Z,4.44
2023-05-17T01:10:04.481Z,4.44
2023-05-17T01:11:04.282Z,4.44
2023-05-17T01:12:03.690Z,4.44
2023-05-17T01:13:04.245Z,4.38
2023-05-17T01:14:04.248Z,4.38
2023-05-17T01:15:03.934Z,4.38
2023-05-17T01:16:04.432Z,4.38
2023-05-17T01:17:04.000Z,4.38
2023-05-17T01:19:04.307Z,4.38
2023-05-17T01:20:03.675Z,4.38
2023-05-17T01:21:03.678Z,4.31
2023-05-17T01:22:04.353Z,4.31
2023-05-17T01:23:03.926Z,4.31
2023-05-17T01:24:04.427Z,4.31
2023-05-17T01:26:04.256Z,4.31
2023-05-17T01:28:04.333Z,4.25
2023-05-17T01:29:04.101Z,4.25
2023-05-17T01:30:05.309Z,4.25
2023-05-17T01:31:04.031Z,4.25
2023-05-17T01:32:04.337Z,4.25
2023-05-17T01:33:04.189Z,4.25
2023-05-17T01:34:03.918Z,4.25
2023-05-17T01:35:03.537Z,4.25
2023-05-17T01:36:04.153Z,4.19
2023-05-17T01:37:03.696Z,4.19
2023-05-17T01:38:04.351Z,4.19
2023-05-17T01:39:03.947Z,4.19
2023-05-17T01:41:04.335Z,4.19
2023-05-17T01:42:04.109Z,4.19
2023-05-17T01:44:04.253Z,4.12
2023-05-17T01:46:03.766Z,4.12
2023-05-17T01:47:03.800Z,4.12
2023-05-17T01:48:04.346Z,4.12
2023-05-17T01:49:03.697Z,4.06
2023-05-17T01:50:04.095Z,4.06
2023-05-17T01:52:04.250Z,4.06
2023-05-17T01:55:04.079Z,4.06
2023-05-17T01:56:03.812Z,4.06
2023-05-17T01:57:04.477Z,4.06
2023-05-17T01:59:04.983Z,4.00
2023-05-17T02:00:03.702Z,4.00
2023-05-17T02:01:04.167Z,4.00
2023-05-17T02:02:04.254Z,3.94
2023-05-17T02:03:03.892Z,3.94
2023-05-17T02:04:04.535Z,3.94
2023-05-17T02:05:04.286Z,3.94
2023-05-17T02:06:03.939Z,3.94
2023-05-17T02:08:04.014Z,3.94
2023-05-17T02:09:03.715Z,3.94
2023-05-17T02:10:04.164Z,3.94
2023-05-17T02:11:04.331Z,3.94
2023-05-17T02:12:03.999Z,3.94
2023-05-17T02:14:04.254Z,3.88
2023-05-17T02:15:04.400Z,3.88
2023-05-17T02:17:03.601Z,3.88
2023-05-17T02:18:04.342Z,3.88
2023-05-17T02:20:03.844Z,3.88
2023-05-17T02:21:04.410Z,3.81
2023-05-17T02:23:04.488Z,3.81
2023-05-17T02:25:03.931Z,3.81
2023-05-17T02:26:03.603Z,3.81
2023-05-17T02:27:04.172Z,3.81
2023-05-17T02:28:03.874Z,3.81
2023-05-17T02:29:03.871Z,3.75
2023-05-17T02:30:04.332Z,3.75
2023-05-17T02:31:04.410Z,3.75
2023-05-17T02:32:04.014Z,3.69
2023-05-17T02:34:04.234Z,3.69
2023-05-17T02:37:04.495Z,3.69
2023-05-17T02:38:04.104Z,3.69
2023-05-17T02:39:04.269Z,3.69
2023-05-17T02:41:03.762Z,3.69
2023-05-17T02:42:04.332Z,3.62
2023-05-17T02:43:03.927Z,3.62
2023-05-17T02:44:03.446Z,3.62
2023-05-17T02:45:04.016Z,3.62
2023-05-17T02:46:04.434Z,3.62
2023-05-17T02:48:03.872Z,3.62
2023-05-17T02:49:04.505Z,3.56
2023-05-17T02:50:04.093Z,3.56
2023-05-17T02:51:03.918Z,3.56
2023-05-17T02:52:04.398Z,3.56
2023-05-17T02:55:04.184Z,3.50
2023-05-17T02:56:03.705Z,3.50
2023-05-17T02:59:04.249Z,3.50
2023-05-17T03:00:03.932Z,3.44
2023-05-17T03:02:03.951Z,3.44
2023-05-17T03:03:04.450Z,3.44
2023-05-17T03:05:03.692Z,3.44
2023-05-17T03:06:04.334Z,3.44
2023-05-17T03:07:06.376Z,3.38
2023-05-17T03:08:04.341Z,3.38
2023-05-17T03:09:03.845Z,3.38
2023-05-17T03:11:04.027Z,3.38
2023-05-17T03:12:03.517Z,3.38
2023-05-17T03:14:03.798Z,3.31
2023-05-17T03:15:03.528Z,3.31
2023-05-17T03:16:04.338Z,3.31
2023-05-17T03:18:03.617Z,3.31
2023-05-17T03:19:04.424Z,3.31
2023-05-17T03:20:04.255Z,3.31
2023-05-17T03:21:03.854Z,3.31
2023-05-17T03:23:03.617Z,3.25
2023-05-17T03:24:04.345Z,3.25
2023-05-17T03:25:04.080Z,3.25
2023-05-17T03:26:03.604Z,3.25
2023-05-17T03:27:04.446Z,3.25
2023-05-17T03:30:03.698Z,3.25
2023-05-17T03:31:04.325Z,3.25
2023-05-17T03:33:04.325Z,3.25
2023-05-17T03:34:03.981Z,3.25
2023-05-17T03:35:03.879Z,3.25
2023-05-17T03:37:03.939Z,3.25
2023-05-17T03:38:03.839Z,3.25
2023-05-17T03:39:04.096Z,3.25
2023-05-17T03:42:04.082Z,3.25
2023-05-17T03:43:03.769Z,3.25
2023-05-17T03:44:04.321Z,3.25
2023-05-17T03:45:04.021Z,3.25
2023-05-17T03:46:03.531Z,3.25
2023-05-17T03:48:03.835Z,3.25
2023-05-17T03:49:04.360Z,3.25
2023-05-17T03:50:03.936Z,3.25
2023-05-17T03:51:03.606Z,3.31
2023-05-17T03:53:03.847Z,3.31
2023-05-17T03:56:03.529Z,3.31
2023-05-17T03:57:04.183Z,3.38
2023-05-17T03:58:04.412Z,3.38
2023-05-17T03:59:04.008Z,3.38
2023-05-17T04:00:03.687Z,3.44
2023-05-17T04:01:03.537Z,3.44
2023-05-17T04:02:04.008Z,3.44
2023-05-17T04:04:04.658Z,3.44
2023-05-17T04:06:04.422Z,3.56
2023-05-17T04:07:04.405Z,3.62
2023-05-17T04:10:03.704Z,3.88
2023-05-17T04:11:04.091Z,3.94
2023-05-17T04:12:04.411Z,4.00
2023-05-17T04:13:04.011Z,4.12
2023-05-17T04:14:04.491Z,4.19
2023-05-17T04:15:04.191Z,4.25
2023-05-17T04:16:03.991Z,4.38
2023-05-17T04:17:04.491Z,4.50
2023-05-17T04:18:04.122Z,4.56
2023-05-17T04:19:03.758Z,4.62
2023-05-17T04:21:04.376Z,4.81
2023-05-17T04:22:04.009Z,4.88
2023-05-17T04:23:03.615Z,4.94
2023-05-17T04:24:04.342Z,5.06
2023-05-17T04:25:04.745Z,5.12
2023-05-17T04:27:04.120Z,5.12
2023-05-17T04:28:03.778Z,5.19
2023-05-17T04:29:04.093Z,5.19
2023-05-17T04:30:03.903Z,5.25
2023-05-17T04:31:04.099Z,5.31
2023-05-17T04:32:03.620Z,5.44
2023-05-17T04:33:04.381Z,5.62
2023-05-17T04:34:03.984Z,5.75
2023-05-17T04:35:03.607Z,5.88
2023-05-17T04:36:04.369Z,6.00
2023-05-17T04:38:04.183Z,6.19
2023-05-17T04:39:04.514Z,6.25
2023-05-17T04:41:03.679Z,6.44
2023-05-17T04:42:04.433Z,6.56
2023-05-17T04:45:04.228Z,6.75
2023-05-17T04:46:03.773Z,6.81
2023-05-17T04:47:04.344Z,6.94
2023-05-17T04:48:03.942Z,7.06
2023-05-17T04:49:03.685Z,7.12
2023-05-17T04:50:04.415Z,7.25
2023-05-17T04:52:05.437Z,7.62
2023-05-17T04:53:04.333Z,7.94
2023-05-17T04:54:03.933Z,8.12
2023-05-17T04:55:03.601Z,8.38
2023-05-17T04:56:04.225Z,8.62
2023-05-17T04:57:04.020Z,8.81
2023-05-17T04:58:03.618Z,8.75
2023-05-17T04:59:04.166Z,8.75
2023-05-17T05:00:03.788Z,8.75
2023-05-17T05:01:04.430Z,8.81
2023-05-17T05:03:04.202Z,9.12
2023-05-17T05:04:04.148Z,9.38
2023-05-17T05:05:03.944Z,9.56
2023-05-17T05:06:04.494Z,9.75
2023-05-17T05:07:04.326Z,10.00
2023-05-17T05:08:03.863Z,10.25
2023-05-17T05:09:03.549Z,10.31
2023-05-17T05:10:04.172Z,10.31
2023-05-17T05:11:04.590Z,10.25
2023-05-17T05:12:04.172Z,10.19
2023-05-17T05:13:04.425Z,10.19
2023-05-17T05:14:04.184Z,10.12
2023-05-17T05:16:04.092Z,10.06
2023-05-17T05:18:03.627Z,10.06
2023-05-17T05:19:03.828Z,10.06
2023-05-17T05:20:03.942Z,10.06
2023-05-17T05:21:04.518Z,10.06
2023-05-17T05:23:04.170Z,10.81
2023-05-17T05:25:04.164Z,11.44
2023-05-17T05:26:03.847Z,11.56
2023-05-17T05:27:06.918Z,11.50
2023-05-17T05:29:03.950Z,11.62
2023-05-17T05:31:04.183Z,11.50
2023-05-17T05:32:03.618Z,11.50
2023-05-17T05:33:04.286Z,11.44
2023-05-17T05:34:03.681Z,11.44
2023-05-17T05:36:04.152Z,11.69
2023-05-17T05:38:04.240Z,11.62
2023-05-17T05:40:04.014Z,11.56
2023-05-17T05:41:03.550Z,11.62
2023-05-17T05:42:03.926Z,11.56
2023-05-17T05:43:03.692Z,11.44
2023-05-17T05:44:04.250Z,11.44
2023-05-17T05:45:03.693Z,11.38
2023-05-17T05:47:03.776Z,11.44
2023-05-17T05:48:04.257Z,11.44
2023-05-17T05:50:04.326Z,11.62
2023-05-17T05:51:04.009Z,11.69
2023-05-17T05:53:14.784Z,12.12
2023-05-17T05:54:03.555Z,12.31
2023-05-17T05:55:04.100Z,12.25
2023-05-17T05:56:03.618Z,12.69
2023-05-17T05:57:04.106Z,13.38
2023-05-17T05:59:04.581Z,14.69
2023-05-17T06:00:04.248Z,14.19
2023-05-17T06:01:06.238Z,13.69
2023-05-17T06:03:04.203Z,13.06
2023-05-17T06:04:04.013Z,13.12
2023-05-17T06:05:04.334Z,13.38
2023-05-17T06:07:04.483Z,13.31
2023-05-17T06:08:03.685Z,13.19
2023-05-17T06:09:04.257Z,13.06
2023-05-17T06:10:03.977Z,13.00
2023-05-17T06:11:04.429Z,12.94
2023-05-17T06:12:03.868Z,12.88
2023-05-17T06:13:03.716Z,12.88
2023-05-17T06:14:04.434Z,12.94
2023-05-17T06:15:03.789Z,12.88
2023-05-17T06:16:04.164Z,12.81
2023-05-17T06:17:04.258Z,12.81
2023-05-17T06:19:03.801Z,12.75
2023-05-17T06:20:03.489Z,12.75
2023-05-17T06:22:03.633Z,12.69
2023-05-17T06:23:04.272Z,12.69
2023-05-17T06:24:05.003Z,12.69
2023-05-17T06:25:04.049Z,12.69
2023-05-17T06:27:04.275Z,12.75
2023-05-17T06:28:03.540Z,12.75
2023-05-17T06:29:04.013Z,12.75
2023-05-17T06:30:04.900Z,12.81
2023-05-17T06:31:03.531Z,12.88
2023-05-17T06:32:04.167Z,13.00
2023-05-17T06:33:03.992Z,13.12
2023-05-17T06:35:04.340Z,13.50
2023-05-17T06:36:03.924Z,13.69
2023-05-17T06:38:04.340Z,13.88
2023-05-17T06:40:09.891Z,14.06
2023-05-17T06:41:04.506Z,14.12
2023-05-17T06:42:03.622Z,14.12
2023-05-17T06:45:04.207Z,14.19
2023-05-17T06:46:03.866Z,14.19
2023-05-17T06:47:04.352Z,14.25
2023-05-17T06:48:04.311Z,14.31
2023-05-17T06:49:04.124Z,14.38
2023-05-17T06:50:04.224Z,14.38
2023-05-17T06:51:03.938Z,14.44
2023-05-17T06:52:04.479Z,14.44
2023-05-17T06:53:03.546Z,14.44
2023-05-17T06:54:04.009Z,14.44
2023-05-17T06:55:03.697Z,14.50
2023-05-17T06:56:04.501Z,14.44
2023-05-17T06:59:04.090Z,14.44
2023-05-17T07:00:03.723Z,14.44
2023-05-17T07:02:04.011Z,14.44
2023-05-17T07:03:04.115Z,14.44
2023-05-17T07:04:03.899Z,14.38
2023-05-17T07:05:04.040Z,14.38
2023-05-17T07:06:03.860Z,14.31
2023-05-17T07:07:03.446Z,14.31
2023-05-17T07:08:04.108Z,14.25
2023-05-17T07:09:03.697Z,14.25
2023-05-17T07:12:04.247Z,14.25
2023-05-17T07:14:04.500Z,14.25
2023-05-17T07:16:03.725Z,14.19
2023-05-17T07:17:05.402Z,14.12
2023-05-17T07:18:04.340Z,14.12
2023-05-17T07:21:04.452Z,14.06
2023-05-17T07:22:04.142Z,14.06
2023-05-17T07:24:04.109Z,14.00
2023-05-17T07:25:03.729Z,13.94
2023-05-17T07:26:04.343Z,13.88
2023-05-17T07:27:03.950Z,13.81
2023-05-17T07:29:04.168Z,13.75
2023-05-17T07:30:03.694Z,13.69
2023-05-17T07:31:04.200Z,13.69
2023-05-17T07:32:04.025Z,13.88
2023-05-17T07:34:03.588Z,13.81
2023-05-17T07:36:03.671Z,13.75
2023-05-17T07:37:04.105Z,13.69
2023-05-17T07:39:04.387Z,13.62
2023-05-17T07:40:04.010Z,13.56
2023-05-17T07:41:03.711Z,13.56
2023-05-17T07:42:05.391Z,13.50
2023-05-17T07:43:04.689Z,13.50
2023-05-17T07:44:04.268Z,13.44
2023-05-17T07:45:03.542Z,13.38
2023-05-17T07:46:04.181Z,13.38
2023-05-17T07:47:03.984Z,13.31
2023-05-17T07:48:03.651Z,13.25
2023-05-17T07:49:04.360Z,13.25
2023-05-17T07:50:04.011Z,13.38
2023-05-17T07:52:04.226Z,13.31
2023-05-17T07:54:03.542Z,13.44
2023-05-17T07:55:04.093Z,13.56
2023-05-17T07:56:03.651Z,13.44
2023-05-17T07:57:05.418Z,13.38
2023-05-17T07:58:04.102Z,13.31
2023-05-17T07:59:04.096Z,13.19
2023-05-17T08:00:03.872Z,13.12
2023-05-17T08:01:04.348Z,13.06
2023-05-17T08:03:04.461Z,13.00
2023-05-17T08:04:03.805Z,12.94
2023-05-17T08:05:04.528Z,12.94
2023-05-17T08:06:04.388Z,12.81
2023-05-17T08:08:04.262Z,12.81
2023-05-17T08:10:03.460Z,12.75
2023-05-17T08:11:03.949Z,12.75
2023-05-17T08:12:03.878Z,12.69
2023-05-17T08:13:04.351Z,12.69
2023-05-17T08:15:03.555Z,12.62
2023-05-17T08:16:12.540Z,12.56
2023-05-17T08:17:03.784Z,12.56
2023-05-17T08:18:05.030Z,12.69
2023-05-17T08:20:03.891Z,12.81
2023-05-17T08:21:03.833Z,12.75
2023-05-17T08:22:04.015Z,12.75
2023-05-17T08:23:03.630Z,12.94
2023-05-17T08:24:04.332Z,13.12
2023-05-17T08:26:03.873Z,13.06
2023-05-17T08:27:04.418Z,13.19
2023-05-17T08:29:03.853Z,13.06
2023-05-17T08:30:05.414Z,13.12
2023-05-17T08:31:04.439Z,13.31
2023-05-17T08:32:04.180Z,13.31
2023-05-17T08:33:03.695Z,13.31
2023-05-17T08:34:04.477Z,13.31
2023-05-17T08:35:03.859Z,13.25
2023-05-17T08:36:04.337Z,13.25
2023-05-17T08:37:03.952Z,13.31
2023-05-17T08:39:04.088Z,13.25
2023-05-17T08:40:03.748Z,13.25
2023-05-17T08:41:04.426Z,13.19
2023-05-17T08:43:04.172Z,13.50
2023-05-17T08:44:03.611Z,13.50
2023-05-17T08:45:04.330Z,13.38
2023-05-17T08:46:03.621Z,13.38
2023-05-17T08:48:03.960Z,13.19
2023-05-17T08:49:03.674Z,13.19
2023-05-17T08:51:04.091Z,13.12
2023-05-17T08:52:03.603Z,13.06
2023-05-17T08:53:04.275Z,13.06
2023-05-17T08:54:03.854Z,13.00
2023-05-17T08:55:04.422Z,13.00
2023-05-17T08:56:03.723Z,12.94
2023-05-17T08:57:03.789Z,12.88
2023-05-17T08:58:04.242Z,12.81
2023-05-17T08:59:03.927Z,12.75
2023-05-17T09:00:04.334Z,12.75
2023-05-17T09:01:04.102Z,12.75
2023-05-17T09:03:04.298Z,12.75
2023-05-17T09:04:04.092Z,12.69
2023-05-17T09:06:04.498Z,12.69
2023-05-17T09:07:04.083Z,12.62
2023-05-17T09:08:03.616Z,12.62
2023-05-17T09:09:04.342Z,12.56
2023-05-17T09:11:04.404Z,12.56
2023-05-17T09:13:04.089Z,12.50
2023-05-17T09:14:03.782Z,12.50
2023-05-17T09:15:04.405Z,12.69
2023-05-17T09:16:04.434Z,12.69
2023-05-17T09:17:04.105Z,12.62
2023-05-17T09:18:03.823Z,12.56
2023-05-17T09:19:03.885Z,12.56
2023-05-17T09:20:03.731Z,12.56
2023-05-17T09:22:03.941Z,12.50
2023-05-17T09:23:04.013Z,12.44
2023-05-17T09:24:06.943Z,12.44
2023-05-17T09:25:04.337Z,12.44
2023-05-17T09:26:03.847Z,12.38
2023-05-17T09:27:03.591Z,12.44
2023-05-17T09:28:03.618Z,12.44
2023-05-17T09:29:04.170Z,12.44
2023-05-17T09:30:03.701Z,12.44
2023-05-17T09:31:04.412Z,12.38
2023-05-17T09:32:03.624Z,12.44
2023-05-17T09:33:04.245Z,12.44
2023-05-17T09:34:03.805Z,12.44
2023-05-17T09:35:04.410Z,12.44
2023-05-17T09:36:03.929Z,12.44
2023-05-17T09:37:03.543Z,12.44
2023-05-17T09:40:04.086Z,12.50
2023-05-17T09:41:03.613Z,12.50
2023-05-17T09:42:04.194Z,12.44
2023-05-17T09:44:04.254Z,12.56
2023-05-17T09:45:04.494Z,12.56
2023-05-17T09:46:04.347Z,12.62
2023-05-17T09:47:03.772Z,12.75
2023-05-17T09:49:04.300Z,12.75
2023-05-17T09:50:04.506Z,12.75
2023-05-17T09:51:03.618Z,12.75
2023-05-17T09:52:04.360Z,12.81
2023-05-17T09:53:04.028Z,12.81
2023-05-17T09:54:04.501Z,12.81
2023-05-17T09:55:04.169Z,12.88
2023-05-17T09:57:04.412Z,13.19
2023-05-17T09:59:03.932Z,13.56
2023-05-17T10:00:04.488Z,13.56
2023-05-17T10:01:04.170Z,13.56
2023-05-17T10:03:03.576Z,13.50
2023-05-17T10:04:04.388Z,13.50
2023-05-17T10:05:03.980Z,13.50
2023-05-17T10:07:04.283Z,13.44
2023-05-17T10:08:03.880Z,13.44
2023-05-17T10:09:04.512Z,13.44
2023-05-17T10:11:04.363Z,13.50
2023-05-17T10:12:04.179Z,13.50
2023-05-17T10:14:04.273Z,13.50
2023-05-17T10:15:03.960Z,13.50
2023-05-17T10:17:04.430Z,13.50
2023-05-17T10:18:04.262Z,13.50
2023-05-17T10:19:04.173Z,13.50
2023-05-17T10:20:03.995Z,13.50
2023-05-17T10:21:03.534Z,13.44
2023-05-17T10:22:18.653Z,13.44
2023-05-17T10:24:04.068Z,13.44
2023-05-17T10:25:03.767Z,13.44
2023-05-17T10:26:04.334Z,13.44
2023-05-17T10:28:03.721Z,13.38
2023-05-17T10:29:04.183Z,13.38
2023-05-17T10:31:04.107Z,13.38
2023-05-17T10:33:04.180Z,13.31
2023-05-17T10:34:04.044Z,13.25
2023-05-17T10:35:11.054Z,13.31
2023-05-17T10:36:03.929Z,13.31
2023-05-17T10:37:04.432Z,13.25
2023-05-17T10:38:03.944Z,13.25
2023-05-17T10:39:03.632Z,13.25
2023-05-17T10:40:03.780Z,13.25
2023-05-17T10:41:04.414Z,13.31
2023-05-17T10:42:14.111Z,13.31
2023-05-17T10:44:03.713Z,13.56
2023-05-17T10:45:04.337Z,13.56
2023-05-17T10:47:04.485Z,13.56
2023-05-17T10:49:03.880Z,13.62
2023-05-17T10:50:04.002Z,13.62
2023-05-17T10:51:03.446Z,13.62
2023-05-17T10:53:04.355Z,13.69
2023-05-17T10:54:03.786Z,13.75
2023-05-17T10:56:04.113Z,13.75
2023-05-17T10:57:03.629Z,13.75
2023-05-17T10:58:03.701Z,13.75
2023-05-17T10:59:04.421Z,13.81
2023-05-17T11:00:04.091Z,13.88
2023-05-17T11:01:03.620Z,13.88
2023-05-17T11:02:04.338Z,14.12
2023-05-17T11:03:04.158Z,14.31
2023-05-17T11:04:04.840Z,14.38
2023-05-17T11:05:03.665Z,14.38
2023-05-17T11:06:03.926Z,14.44
2023-05-17T11:07:05.191Z,14.50
2023-05-17T11:08:03.797Z,14.50
2023-05-17T11:09:04.443Z,14.50
2023-05-17T11:10:03.932Z,14.56
2023-05-17T11:12:04.193Z,14.56
2023-05-17T11:14:04.497Z,14.62
2023-05-17T11:15:04.768Z,14.62
2023-05-17T11:18:03.665Z,14.69
2023-05-17T11:19:04.327Z,14.75
2023-05-17T11:20:04.117Z,14.75
2023-05-17T11:21:04.226Z,14.75
2023-05-17T11:22:03.843Z,14.75
2023-05-17T11:23:04.636Z,14.69
2023-05-17T11:24:03.940Z,14.69
2023-05-17T11:26:13.033Z,14.69
2023-05-17T11:28:03.463Z,14.62
2023-05-17T11:29:04.094Z,14.62
2023-05-17T11:31:04.253Z,14.62
2023-05-17T11:32:03.931Z,14.69
2023-05-17T11:33:05.671Z,14.69
2023-05-17T11:35:03.724Z,14.69
2023-05-17T11:36:04.322Z,14.69
2023-05-17T11:37:03.935Z,14.75
2023-05-17T11:38:04.501Z,14.69
2023-05-17T11:39:07.939Z,14.69
2023-05-17T11:40:04.383Z,14.69
2023-05-17T11:41:06.235Z,14.62
2023-05-17T11:42:03.540Z,14.69
2023-05-17T11:43:03.568Z,14.69
2023-05-17T11:46:04.182Z,14.88
2023-05-17T11:47:03.635Z,14.88
2023-05-17T11:48:04.328Z,14.94
2023-05-17T11:49:03.849Z,14.94
2023-05-17T11:50:04.337Z,15.00
2023-05-17T11:52:03.532Z,15.06
2023-05-17T11:53:04.030Z,15.06
2023-05-17T11:54:04.496Z,15.12
2023-05-17T11:55:04.113Z,15.12
2023-05-17T11:57:03.534Z,15.12
2023-05-17T11:58:03.600Z,15.12
2023-05-17T11:59:04.283Z,15.12
2023-05-17T12:00:03.701Z,15.12
2023-05-17T12:01:03.873Z,15.12
2023-05-17T12:02:04.430Z,15.12
2023-05-17T12:03:04.126Z,15.12
2023-05-17T12:04:03.899Z,15.12
2023-05-17T12:05:03.701Z,15.06
2023-05-17T12:06:04.024Z,15.06
2023-05-17T12:07:03.797Z,15.06
2023-05-17T12:08:04.254Z,15.06
2023-05-17T12:10:04.413Z,15.19
2023-05-17T12:11:04.428Z,15.19
2023-05-17T12:12:03.927Z,15.25
2023-05-17T12:13:04.339Z,15.25
2023-05-17T12:14:04.023Z,15.25
2023-05-17T12:15:03.456Z,15.31
2023-05-17T12:16:03.537Z,15.44
2023-05-17T12:17:03.688Z,15.44
2023-05-17T12:18:04.359Z,15.44
2023-05-17T12:19:04.203Z,15.44
2023-05-17T12:20:03.944Z,15.44
2023-05-17T12:21:03.789Z,15.38
2023-05-17T12:22:04.415Z,15.38
2023-05-17T12:23:04.019Z,15.38
2023-05-17T12:24:03.784Z,15.31
2023-05-17T12:25:04.245Z,15.25
2023-05-17T12:27:04.515Z,15.31
2023-05-17T12:28:04.035Z,15.31
2023-05-17T12:29:04.478Z,15.31
2023-05-17T12:30:04.249Z,15.25
2023-05-17T12:31:03.964Z,15.19
2023-05-17T12:33:04.225Z,15.25
2023-05-17T12:34:04.149Z,15.19
2023-05-17T12:35:03.680Z,15.19
2023-05-17T12:36:03.876Z,15.19
2023-05-17T12:37:04.178Z,15.12
2023-05-17T12:38:03.855Z,15.06
2023-05-17T12:39:04.425Z,15.00
2023-05-17T12:40:03.851Z,14.94
2023-05-17T12:41:04.508Z,14.94
2023-05-17T12:42:04.168Z,14.94
2023-05-17T12:44:14.341Z,15.00
2023-05-17T12:46:04.048Z,15.06
2023-05-17T12:47:03.956Z,15.12
2023-05-17T12:48:04.460Z,15.19
2023-05-17T12:49:04.151Z,15.19
2023-05-17T12:50:03.847Z,15.25
2023-05-17T12:51:04.415Z,15.31
2023-05-17T12:52:04.168Z,15.31
2023-05-17T12:54:04.333Z,15.38
2023-05-17T12:56:04.405Z,15.44
2023-05-17T12:57:04.107Z,15.50
2023-05-17T12:58:03.769Z,15.50
2023-05-17T13:00:03.934Z,15.50
2023-05-17T13:02:04.240Z,15.50
2023-05-17T13:03:04.111Z,15.50
2023-05-17T13:05:04.016Z,15.62
2023-05-17T13:06:03.925Z,15.62
2023-05-17T13:07:04.494Z,15.62
2023-05-17T13:08:04.337Z,15.56
2023-05-17T13:09:03.781Z,15.50
2023-05-17T13:10:04.410Z,15.31
2023-05-17T13:11:04.102Z,15.25
2023-05-17T13:13:04.495Z,15.06
2023-05-17T13:14:03.940Z,15.06
2023-05-17T13:15:04.428Z,15.06
2023-05-17T13:16:03.942Z,15.12
2023-05-17T13:17:03.633Z,15.19
2023-05-17T13:18:04.564Z,15.31
2023-05-17T13:19:04.382Z,15.31
2023-05-17T13:21:03.635Z,15.44
2023-05-17T13:22:04.109Z,15.50
2023-05-17T13:23:03.613Z,15.56
2023-05-17T13:24:04.176Z,15.56
2023-05-17T13:25:03.851Z,15.62
2023-05-17T13:26:04.419Z,15.62
2023-05-17T13:27:04.184Z,15.69
2023-05-17T13:28:03.628Z,15.69
2023-05-17T13:29:04.189Z,15.69
2023-05-17T13:31:04.273Z,15.75
2023-05-17T13:32:03.947Z,15.75
2023-05-17T13:33:04.540Z,15.75
2023-05-17T13:34:04.387Z,15.75
2023-05-17T13:35:03.848Z,15.75
2023-05-17T13:36:03.454Z,15.75
2023-05-17T13:37:04.144Z,15.69
2023-05-17T13:39:04.544Z,15.56
2023-05-17T13:40:03.924Z,15.50
2023-05-17T13:41:03.536Z,15.69
2023-05-17T13:42:03.689Z,15.62
2023-05-17T13:43:04.422Z,15.50
2023-05-17T13:44:04.268Z,15.50
2023-05-17T13:45:03.775Z,15.50
2023-05-17T13:47:03.938Z,15.50
2023-05-17T13:48:03.594Z,15.50
2023-05-17T13:49:03.739Z,15.44
2023-05-17T13:50:03.532Z,15.38
2023-05-17T13:51:03.528Z,15.44
2023-05-17T13:53:04.424Z,15.38
2023-05-17T13:54:05.276Z,15.44
2023-05-17T13:55:04.336Z,15.44
2023-05-17T13:57:04.265Z,15.44
2023-05-17T13:58:03.785Z,15.44
2023-05-17T14:00:04.019Z,15.50
2023-05-17T14:02:04.265Z,15.44
2023-05-17T14:03:03.980Z,15.50
2023-05-17T14:04:03.894Z,15.44
2023-05-17T14:05:04.404Z,15.38
2023-05-17T14:06:04.206Z,15.38
2023-05-17T14:07:03.803Z,15.38
2023-05-17T14:09:04.414Z,15.38
2023-05-17T14:10:03.945Z,15.31
2023-05-17T14:11:03.640Z,15.31
2023-05-17T14:12:03.787Z,15.38
2023-05-17T14:13:04.409Z,15.38
2023-05-17T14:16:04.258Z,15.44
2023-05-17T14:18:03.802Z,15.50
2023-05-17T14:19:04.892Z,15.50
2023-05-17T14:21:04.271Z,15.50
2023-05-17T14:22:03.870Z,15.56
2023-05-17T14:23:03.624Z,15.56
2023-05-17T14:24:04.329Z,15.56
2023-05-17T14:25:04.198Z,15.62
2023-05-17T14:26:03.681Z,15.62
2023-05-17T14:27:03.694Z,15.62
2023-05-17T14:28:04.423Z,15.62
2023-05-17T14:29:04.249Z,15.62
2023-05-17T14:30:03.956Z,15.56
2023-05-17T14:31:04.420Z,15.56
2023-05-17T14:32:04.088Z,15.56
2023-05-17T14:34:04.566Z,15.50
2023-05-17T14:35:04.260Z,15.56
2023-05-17T14:36:03.948Z,15.56
2023-05-17T14:37:03.777Z,15.56
2023-05-17T14:38:04.412Z,15.50
2023-05-17T14:39:03.939Z,15.56
2023-05-17T14:40:06.691Z,15.56
2023-05-17T14:42:04.422Z,15.50
2023-05-17T14:44:03.537Z,15.50
2023-05-17T14:45:04.268Z,15.50
2023-05-17T14:46:03.762Z,15.50
2023-05-17T14:47:03.774Z,15.50
2023-05-17T14:48:04.418Z,15.44
2023-05-17T14:49:04.070Z,15.38
2023-05-17T14:50:03.694Z,15.31
2023-05-17T14:51:04.450Z,15.31
2023-05-17T14:53:04.506Z,15.25
2023-05-17T14:54:03.923Z,15.31
2023-05-17T14:55:03.463Z,15.31
2023-05-17T14:56:04.182Z,15.31
2023-05-17T14:57:03.860Z,15.31
2023-05-17T14:58:04.194Z,15.31
2023-05-17T14:59:03.856Z,15.25
2023-05-17T15:00:04.437Z,15.25
2023-05-17T15:01:04.804Z,15.25
2023-05-17T15:02:03.763Z,15.25
2023-05-17T15:03:04.023Z,15.19
2023-05-17T15:04:04.514Z,15.25
2023-05-17T15:05:04.521Z,15.31
2023-05-17T15:07:05.313Z,15.38
2023-05-17T15:10:03.892Z,15.44
2023-05-17T15:11:04.421Z,15.50
2023-05-17T15:13:03.555Z,15.50
2023-05-17T15:14:03.599Z,15.50
2023-05-17T15:15:03.601Z,15.50
2023-05-17T15:16:03.910Z,15.44
2023-05-17T15:17:04.505Z,15.38
2023-05-17T15:18:04.119Z,15.38
2023-05-17T15:19:03.840Z,15.38
2023-05-17T15:20:03.817Z,15.38
2023-05-17T15:21:04.441Z,15.38
2023-05-17T15:23:04.422Z,15.31
2023-05-17T15:26:04.288Z,15.31
2023-05-17T15:27:03.936Z,15.31
2023-05-17T15:28:03.626Z,15.25
2023-05-17T15:29:03.708Z,15.31
2023-05-17T15:30:03.850Z,15.31
2023-05-17T15:31:03.530Z,15.31
2023-05-17T15:32:03.700Z,15.25
2023-05-17T15:33:03.743Z,15.19
2023-05-17T15:34:04.421Z,15.25
2023-05-17T15:36:03.688Z,15.25
2023-05-17T15:37:04.426Z,15.31
2023-05-17T15:40:04.174Z,15.31
2023-05-17T15:41:03.791Z,15.38
2023-05-17T15:42:03.799Z,15.31
2023-05-17T15:43:04.440Z,15.31
2023-05-17T15:44:04.109Z,15.19
2023-05-17T15:46:04.250Z,15.12
2023-05-17T15:47:03.962Z,15.12
2023-05-17T15:48:04.505Z,15.12
2023-05-17T15:49:04.114Z,15.19
2023-05-17T15:50:03.808Z,15.19
2023-05-17T15:51:03.626Z,15.19
2023-05-17T15:52:04.196Z,15.19
2023-05-17T15:53:03.846Z,15.25
2023-05-17T15:55:04.176Z,15.25
2023-05-17T15:56:03.861Z,15.25
2023-05-17T15:58:03.527Z,15.31
2023-05-17T15:59:04.261Z,15.31
2023-05-17T16:00:03.891Z,15.31
2023-05-17T16:01:03.621Z,15.31
2023-05-17T16:02:04.243Z,15.38
2023-05-17T16:03:03.736Z,15.44
2023-05-17T16:04:03.886Z,15.38
2023-05-17T16:05:04.143Z,15.38
2023-05-17T16:06:04.486Z,15.44
2023-05-17T16:07:03.936Z,15.38
2023-05-17T16:09:04.235Z,15.44
2023-05-17T16:10:03.931Z,15.44
2023-05-17T16:11:03.560Z,15.50
2023-05-17T16:12:03.775Z,15.50
2023-05-17T16:13:03.472Z,15.50